Sunday, January 20, 2019, 1:54 AM EST
Back to Local

KHUL, Houlton Int'l Airport

Location: Houlton, ME, United States Lat: 46.117
Local Time: 1:54 AM EST ( 6:54 GMT) Lon: -67.8
Time Zone: US/Eastern Elev: 492 ft

Show me the last for .
Show Decoded

2019-01-20 01:27 METAR KHUL 200627Z AUTO 02005KT 3SM HZ OVC060 M21/M24 A3031 RMK AO2 T12111239
                 TSNO =
2019-01-20 00:53 METAR KHUL 200553Z AUTO 01007KT 2SM HZ OVC043 M21/M24 A3033 RMK AO2 SLP287 60000
                 T12111239 11200 21211 58014 TSNO =
2019-01-20 00:38 METAR KHUL 200538Z AUTO 36006KT 1 1/2SM BR OVC034 M21/M23 A3033 RMK AO2
                 T12111233 TSNO =
2019-01-20 00:25 METAR KHUL 200525Z AUTO 01006KT 1 1/4SM HZ OVC032 M21/M23 A3034 RMK AO2
                 T12061233 TSNO =
2019-01-19 23:53 METAR KHUL 200453Z AUTO 01006KT 1 3/4SM HZ OVC040 M21/M24 A3036 RMK AO2 SNE44
                 SLP296 P0000 T12061239 410781211 TSNO =
2019-01-19 23:50 METAR KHUL 200450Z AUTO 01006KT 1 3/4SM HZ OVC038 M21/M23 A3036 RMK AO2 SNE44
                 P0000 TSNO =
2019-01-19 23:39 METAR KHUL 200439Z AUTO 01005KT 1 1/4SM -SN OVC036 M21/M23 A3037 RMK AO2 P0000
                 T12061233 TSNO =
2019-01-19 23:10 METAR KHUL 200410Z AUTO 02008KT 1 1/2SM -SN OVC035 M21/M24 A3037 RMK AO2 P0000
                 T12061239 TSNO =
2019-01-19 22:53 METAR KHUL 200353Z AUTO 02008KT 1 1/4SM -SN OVC033 M21/M24 A3037 RMK AO2 SLP301
                 P0000 T12061239 TSNO =
2019-01-19 22:42 METAR KHUL 200342Z AUTO 02009KT 1 1/2SM -SN OVC035 M21/M24 A3037 RMK AO2 P0000
                 T12061239 TSNO =
2019-01-19 21:53 METAR KHUL 200253Z AUTO 02008KT 1 1/4SM -SN OVC035 M21/M25 A3037 RMK AO2 SNB15
                 SLP303 P0000 60000 T12061250 58003 TSNO =
2019-01-19 21:51 METAR KHUL 200251Z AUTO 02008KT 1 1/4SM -SN OVC037 M21/M25 A3038 RMK AO2 SNB15
                 P0000 TSNO =
2019-01-19 21:34 METAR KHUL 200234Z AUTO 04007KT 1 3/4SM -SN OVC041 M21/M26 A3038 RMK AO2 SNB15
                 P0000 T12061256 TSNO =
2019-01-19 21:08 METAR KHUL 200208Z AUTO 02007KT 2 1/2SM HZ OVC044 M21/M26 A3038 RMK AO2
                 T12061256 TSNO =
2019-01-19 20:53 METAR KHUL 200153Z AUTO 02007KT 4SM HZ OVC050 M20/M26 A3038 RMK AO2 SLP306
                 T12001261 TSNO =
2019-01-19 19:53 METAR KHUL 200053Z AUTO 02007KT 10SM OVC070 M20/M27 A3038 RMK AO2 SLP306
                 T12001267 TSNO =
2019-01-19 18:53 METAR KHUL 192353Z AUTO 03006KT 10SM OVC085 M20/M27 A3041 RMK AO2 SLP315
                 T12001267 11189 21206 51022 TSNO =
2019-01-19 17:53 METAR KHUL 192253Z AUTO 01004KT 10SM OVC100 M20/M27 A3041 RMK AO2 SLP313
                 T12001272 TSNO =
2019-01-19 16:53 METAR KHUL 192153Z AUTO 03008KT 10SM OVC110 M20/M27 A3037 RMK AO2 SLP301
                 T12001272 TSNO =
2019-01-19 15:53 METAR KHUL 192053Z AUTO 01007KT 10SM BKN110 M20/M27 A3035 RMK AO2 SLP292
                 T12001272 53002 TSNO =
2019-01-19 14:53 METAR KHUL 191953Z AUTO 02011KT 10SM CLR M21/M28 A3033 RMK AO2 SLP284 T12061278
                 TSNO =
2019-01-19 13:53 METAR KHUL 191853Z AUTO 02009KT 10SM CLR M19/M27 A3032 RMK AO2 SLP282 T11941272
                 TSNO =
2019-01-19 12:53 METAR KHUL 191753Z AUTO 36010KT 10SM CLR M19/M28 A3034 RMK AO2 SLP289 T11891278
                 11189 21211 50001 TSNO =
2019-01-19 11:53 METAR KHUL 191653Z AUTO 01010KT 10SM CLR M19/M28 A3035 RMK AO2 SLP289 T11941278
                 TSNO =
2019-01-19 10:53 METAR KHUL 191553Z AUTO 01010KT 10SM CLR M20/M28 A3036 RMK AO2 SLP293 T12001283
                 TSNO =
2019-01-19 09:53 METAR KHUL 191453Z AUTO 36010KT 10SM CLR M21/M28 A3034 RMK AO2 SLP286 T12061283
                 52030 TSNO =
2019-01-19 08:53 METAR KHUL 191353Z AUTO 36015KT 10SM CLR M21/M28 A3031 RMK AO2 SLP276 T12061278
                 TSNO =
2019-01-19 07:53 METAR KHUL 191253Z AUTO 35008KT 10SM CLR M21/M25 A3028 RMK AO2 SLP266 T12061250
                 TSNO =
2019-01-19 06:53 METAR KHUL 191153Z AUTO 01008KT 10SM CLR M19/M24 A3025 RMK AO2 SLP256 70003
                 T11941244 11094 21200 52038 TSNO =
2019-01-19 05:53 METAR KHUL 191053Z AUTO 35011KT 10SM CLR M18/M23 A3021 RMK AO2 SLP242 T11831233
                 TSNO =
2019-01-19 04:53 METAR KHUL 190953Z AUTO 36012KT 10SM CLR M17/M22 A3017 RMK AO2 SLP229 T11671217
                 TSNO =
2019-01-19 04:03 METAR KHUL 190903Z AUTO 36010G16KT 10SM SCT019 M16/M19 A3014 RMK AO2 T11561189
                 TSNO =
2019-01-19 03:53 METAR KHUL 190853Z AUTO 35007KT 10SM BKN019 M15/M18 A3014 RMK AO2 WSHFT 0826
                 SLP216 T11501178 53034 TSNO =
2019-01-19 03:40 METAR KHUL 190840Z AUTO 36010KT 6SM HZ BKN019 M15/M18 A3013 RMK AO2 WSHFT 0826
                 T11501178 TSNO =
2019-01-19 02:53 METAR KHUL 190753Z AUTO 30010KT 10SM CLR M12/M18 A3009 RMK AO2 SLP200 T11171183
                 TSNO =

Support USWX by starting your Amazon purchase here.